createdAt,value
2017-09-22T00:00:27.218Z,0
2017-09-22T00:01:07.674Z,0
2017-09-22T00:01:48.121Z,0
2017-09-22T00:02:28.570Z,0
2017-09-22T00:03:09.010Z,0
2017-09-22T00:03:49.451Z,0
2017-09-22T00:04:29.899Z,0
2017-09-22T00:05:10.343Z,0
2017-09-22T00:05:50.786Z,0
2017-09-22T00:06:31.235Z,0
2017-09-22T00:07:11.682Z,0
2017-09-22T00:07:52.140Z,0
2017-09-22T00:08:32.587Z,0
2017-09-22T00:09:13.039Z,0
2017-09-22T00:09:53.472Z,0
2017-09-22T00:10:33.920Z,0
2017-09-22T00:11:14.374Z,0
2017-09-22T00:11:54.824Z,0
2017-09-22T00:12:35.298Z,0
2017-09-22T00:13:15.737Z,0
2017-09-22T00:13:56.191Z,0
2017-09-22T00:14:36.634Z,0
2017-09-22T00:15:17.090Z,0
2017-09-22T00:15:57.542Z,0
2017-09-22T00:16:37.981Z,0
2017-09-22T00:17:18.424Z,0
2017-09-22T00:17:58.885Z,0
2017-09-22T00:18:39.349Z,0
2017-09-22T00:19:19.773Z,0
2017-09-22T00:20:00.222Z,0
2017-09-22T00:20:40.687Z,0
2017-09-22T00:21:21.134Z,0
2017-09-22T00:22:01.579Z,0
2017-09-22T00:22:42.031Z,0
2017-09-22T00:23:22.480Z,0
2017-09-22T00:24:02.930Z,0
2017-09-22T00:24:43.384Z,0
2017-09-22T00:25:23.841Z,0
2017-09-22T00:26:04.289Z,0
2017-09-22T00:26:44.737Z,0
2017-09-22T00:27:25.185Z,0
2017-09-22T00:28:05.638Z,0
2017-09-22T00:28:46.082Z,0
2017-09-22T00:29:26.530Z,0
2017-09-22T00:30:06.974Z,0
2017-09-22T00:30:47.426Z,0
2017-09-22T00:31:27.873Z,0
2017-09-22T00:32:08.314Z,0
2017-09-22T00:32:48.761Z,0
2017-09-22T00:33:29.208Z,0
2017-09-22T00:34:09.648Z,0
2017-09-22T00:34:50.100Z,0
2017-09-22T00:35:30.547Z,0
2017-09-22T00:36:10.994Z,0
2017-09-22T00:36:51.438Z,0
2017-09-22T00:37:31.890Z,0
2017-09-22T00:38:12.334Z,0
2017-09-22T00:38:52.786Z,0
2017-09-22T00:39:33.234Z,0
2017-09-22T00:40:13.733Z,0
2017-09-22T00:40:54.172Z,0
2017-09-22T00:41:34.622Z,0
2017-09-22T00:42:15.069Z,0
2017-09-22T00:42:55.511Z,0
2017-09-22T00:43:35.951Z,0
2017-09-22T00:44:16.397Z,0
2017-09-22T00:44:56.842Z,0
2017-09-22T00:45:37.291Z,0
2017-09-22T00:46:17.739Z,0
2017-09-22T00:46:58.180Z,0
2017-09-22T00:47:38.616Z,0
2017-09-22T00:48:19.062Z,0
2017-09-22T00:48:59.516Z,0
2017-09-22T00:49:39.964Z,0
2017-09-22T00:50:20.405Z,0
2017-09-22T00:51:00.852Z,0
2017-09-22T00:51:41.302Z,0
2017-09-22T00:52:21.749Z,0
2017-09-22T00:53:02.198Z,0
2017-09-22T00:53:42.651Z,0
2017-09-22T00:54:23.105Z,0
2017-09-22T00:55:03.552Z,0
2017-09-22T00:55:44.000Z,0
2017-09-22T00:56:24.449Z,0
2017-09-22T00:57:04.898Z,0
2017-09-22T00:57:45.368Z,0
2017-09-22T00:58:25.809Z,0
2017-09-22T00:59:06.261Z,0
2017-09-22T00:59:46.709Z,0
2017-09-22T01:00:27.157Z,0
2017-09-22T01:01:07.603Z,0
2017-09-22T01:01:48.061Z,0
2017-09-22T01:02:28.492Z,0
2017-09-22T01:03:08.955Z,0
2017-09-22T01:03:49.399Z,0
2017-09-22T01:04:29.832Z,0
2017-09-22T01:05:10.283Z,0
2017-09-22T01:05:50.733Z,0
2017-09-22T01:06:31.170Z,0
2017-09-22T01:07:11.621Z,0
2017-09-22T01:07:52.072Z,0
2017-09-22T01:08:32.516Z,0
2017-09-22T01:09:12.961Z,0
2017-09-22T01:09:53.412Z,0
2017-09-22T01:10:33.864Z,0
2017-09-22T01:11:14.313Z,0
2017-09-22T01:11:54.756Z,0
2017-09-22T01:12:35.211Z,0
2017-09-22T01:13:15.659Z,0
2017-09-22T01:13:56.100Z,0
2017-09-22T01:14:36.549Z,0
2017-09-22T01:15:17.001Z,0
2017-09-22T01:15:57.450Z,0
2017-09-22T01:16:37.901Z,0
2017-09-22T01:17:18.349Z,0
2017-09-22T01:17:58.796Z,0
2017-09-22T01:18:39.239Z,0
2017-09-22T01:19:19.688Z,0
2017-09-22T01:20:00.134Z,0
2017-09-22T01:20:40.581Z,0
2017-09-22T01:21:21.025Z,0
2017-09-22T01:22:01.476Z,0
2017-09-22T01:22:41.922Z,0
2017-09-22T01:23:22.373Z,0
2017-09-22T01:24:02.825Z,0
2017-09-22T01:24:43.267Z,0
2017-09-22T01:25:23.717Z,0
2017-09-22T01:26:04.167Z,0
2017-09-22T01:26:44.616Z,0
2017-09-22T01:27:25.070Z,0
2017-09-22T01:28:05.519Z,0
2017-09-22T01:28:45.965Z,0
2017-09-22T01:29:26.412Z,0
2017-09-22T01:30:06.861Z,0
2017-09-22T01:30:47.306Z,0
2017-09-22T01:31:27.750Z,0
2017-09-22T01:32:08.198Z,0
2017-09-22T01:32:48.642Z,0
2017-09-22T01:33:29.088Z,0
2017-09-22T01:34:09.536Z,0
2017-09-22T01:34:49.996Z,0
2017-09-22T01:35:30.441Z,0
2017-09-22T01:36:10.887Z,0
2017-09-22T01:36:51.339Z,0
2017-09-22T01:37:31.787Z,0
2017-09-22T01:38:12.239Z,0
2017-09-22T01:38:52.690Z,0
2017-09-22T01:39:33.140Z,0
2017-09-22T01:40:13.590Z,0
2017-09-22T01:40:54.047Z,0
2017-09-22T01:41:34.493Z,0
2017-09-22T01:42:14.939Z,0
2017-09-22T01:42:55.389Z,0
2017-09-22T01:43:35.837Z,0
2017-09-22T01:44:16.286Z,0
2017-09-22T01:44:56.735Z,0
2017-09-22T01:45:37.184Z,0
2017-09-22T01:46:17.632Z,0
2017-09-22T01:46:58.080Z,0
2017-09-22T01:47:38.524Z,0
2017-09-22T01:48:18.988Z,0
2017-09-22T01:48:59.412Z,0
2017-09-22T01:52:30.139Z,0
2017-09-22T01:53:10.591Z,0
2017-09-22T01:53:51.047Z,0
2017-09-22T01:54:31.503Z,0
2017-09-22T01:55:11.955Z,0
2017-09-22T01:55:52.426Z,0
2017-09-22T01:56:32.880Z,0
2017-09-22T01:57:13.345Z,0
2017-09-22T01:57:53.793Z,0
2017-09-22T01:58:34.243Z,0
2017-09-22T01:59:14.699Z,0
2017-09-22T01:59:55.168Z,0
2017-09-22T02:00:35.618Z,0
2017-09-22T02:01:16.076Z,0
2017-09-22T02:01:56.513Z,0
2017-09-22T02:02:36.959Z,0
2017-09-22T02:03:17.415Z,0
2017-09-22T02:03:57.899Z,0
2017-09-22T02:04:38.323Z,0
2017-09-22T02:05:18.783Z,0
2017-09-22T02:05:59.233Z,0
2017-09-22T02:06:39.690Z,0
2017-09-22T02:07:20.137Z,0
2017-09-22T02:08:00.590Z,0
2017-09-22T02:08:41.046Z,0
2017-09-22T02:09:21.510Z,0
2017-09-22T02:10:01.964Z,0
2017-09-22T02:10:42.415Z,0
2017-09-22T02:11:22.874Z,0
2017-09-22T02:12:03.332Z,0
2017-09-22T02:12:43.785Z,0
2017-09-22T02:13:24.249Z,0
2017-09-22T02:14:04.704Z,0
2017-09-22T02:14:45.163Z,0
2017-09-22T02:15:25.619Z,0
2017-09-22T02:16:06.079Z,0
2017-09-22T02:16:46.534Z,0
2017-09-22T02:17:26.987Z,0
2017-09-22T02:18:07.442Z,0
2017-09-22T02:18:47.930Z,0
2017-09-22T02:19:28.354Z,0
2017-09-22T02:20:08.815Z,0
2017-09-22T02:20:49.269Z,0
2017-09-22T02:21:29.722Z,0
2017-09-22T02:22:10.178Z,0
2017-09-22T02:22:50.635Z,0
2017-09-22T02:23:31.089Z,0
2017-09-22T02:24:11.533Z,0
2017-09-22T02:24:51.983Z,0
2017-09-22T02:25:32.470Z,0
2017-09-22T02:26:12.914Z,0
2017-09-22T02:26:53.363Z,0
2017-09-22T02:27:33.814Z,0
2017-09-22T02:28:14.267Z,0
2017-09-22T02:28:54.716Z,0
2017-09-22T02:29:35.175Z,0
2017-09-22T02:30:15.627Z,0
2017-09-22T02:30:56.080Z,0
2017-09-22T02:31:36.538Z,0
2017-09-22T02:32:16.997Z,0
2017-09-22T02:32:57.455Z,0
2017-09-22T02:33:37.908Z,0
2017-09-22T02:34:18.362Z,0
2017-09-22T02:34:58.821Z,0
2017-09-22T02:35:39.268Z,0
2017-09-22T02:36:19.723Z,0
2017-09-22T02:37:00.179Z,0
2017-09-22T02:37:40.632Z,0
2017-09-22T02:38:21.085Z,0
2017-09-22T02:39:01.540Z,0
2017-09-22T02:39:41.997Z,0
2017-09-22T02:40:22.453Z,0
2017-09-22T02:41:02.902Z,0
2017-09-22T02:41:43.356Z,0
2017-09-22T02:42:23.877Z,0
2017-09-22T02:43:04.322Z,0
2017-09-22T02:43:44.769Z,0
2017-09-22T02:44:25.224Z,0
2017-09-22T02:45:05.675Z,0
2017-09-22T02:45:46.121Z,0
2017-09-22T02:46:26.571Z,0
2017-09-22T02:47:07.021Z,0
2017-09-22T02:47:47.483Z,0
2017-09-22T02:48:27.937Z,0
2017-09-22T02:49:08.390Z,0
2017-09-22T02:49:48.842Z,0
2017-09-22T02:50:29.291Z,0
2017-09-22T02:51:09.743Z,0
2017-09-22T02:51:50.193Z,0
2017-09-22T02:52:30.654Z,0
2017-09-22T02:53:11.106Z,0
2017-09-22T02:53:51.553Z,0
2017-09-22T02:54:32.007Z,0
2017-09-22T02:55:12.461Z,0
2017-09-22T02:55:54.577Z,0
2017-09-22T02:56:35.042Z,0
2017-09-22T02:57:15.499Z,0
2017-09-22T02:57:55.956Z,0
2017-09-22T02:58:36.415Z,0
2017-09-22T02:59:16.863Z,0
2017-09-22T02:59:57.318Z,0
2017-09-22T03:00:37.774Z,0
2017-09-22T03:01:18.211Z,0
2017-09-22T03:01:58.665Z,0
2017-09-22T03:02:39.120Z,0
2017-09-22T03:03:19.573Z,0
2017-09-22T03:04:00.040Z,0
2017-09-22T03:04:40.491Z,0
2017-09-22T03:05:20.950Z,0
2017-09-22T03:06:01.404Z,0
2017-09-22T03:06:41.916Z,0
2017-09-22T03:07:22.371Z,0
2017-09-22T03:08:02.831Z,0
2017-09-22T03:08:43.285Z,0
2017-09-22T03:09:23.748Z,0
2017-09-22T03:10:04.189Z,0
2017-09-22T03:10:44.644Z,0
2017-09-22T03:11:25.097Z,0
2017-09-22T03:12:05.553Z,0
2017-09-22T03:12:46.008Z,0
2017-09-22T03:13:26.469Z,0
2017-09-22T03:14:06.928Z,0
2017-09-22T03:14:47.385Z,0
2017-09-22T03:15:27.838Z,0
2017-09-22T03:16:08.297Z,0
2017-09-22T03:16:48.753Z,0
2017-09-22T03:17:29.202Z,0
2017-09-22T03:18:09.683Z,0
2017-09-22T03:18:50.120Z,0
2017-09-22T03:19:30.567Z,0
2017-09-22T03:20:11.036Z,0
2017-09-22T03:20:51.464Z,0
2017-09-22T03:21:31.916Z,0
2017-09-22T03:22:12.372Z,0
2017-09-22T03:22:52.824Z,0
2017-09-22T03:23:33.279Z,0
2017-09-22T03:24:13.738Z,0
2017-09-22T03:24:54.195Z,0
2017-09-22T03:25:34.656Z,0
2017-09-22T03:26:15.106Z,0
2017-09-22T03:26:55.560Z,0
2017-09-22T03:27:36.017Z,0
2017-09-22T03:28:16.476Z,0
2017-09-22T03:28:56.927Z,0
2017-09-22T03:29:37.384Z,0
2017-09-22T03:30:17.836Z,0
2017-09-22T03:30:58.287Z,0
2017-09-22T03:31:38.741Z,0
2017-09-22T03:32:19.193Z,0
2017-09-22T03:32:59.655Z,0
2017-09-22T03:33:40.111Z,0
2017-09-22T03:34:20.556Z,0
2017-09-22T03:35:01.009Z,0
2017-09-22T03:35:41.469Z,0
2017-09-22T03:36:21.924Z,0
2017-09-22T03:37:02.385Z,0
2017-09-22T03:37:42.842Z,0
2017-09-22T03:38:23.296Z,0
2017-09-22T03:39:03.759Z,0
2017-09-22T03:39:44.216Z,0
2017-09-22T03:40:24.667Z,0
2017-09-22T03:41:05.121Z,0
2017-09-22T03:41:45.566Z,0
2017-09-22T03:42:26.028Z,0
2017-09-22T03:43:06.476Z,4
2017-09-22T03:43:46.930Z,4
2017-09-22T03:44:27.382Z,4
2017-09-22T03:45:07.824Z,4
2017-09-22T03:45:48.284Z,4
2017-09-22T03:46:28.747Z,4
2017-09-22T03:47:09.204Z,0
2017-09-22T03:47:49.644Z,0
2017-09-22T03:48:30.092Z,0
2017-09-22T03:49:10.546Z,0
2017-09-22T03:49:51.021Z,0
2017-09-22T03:50:31.460Z,0
2017-09-22T03:51:11.917Z,0
2017-09-22T03:51:52.381Z,0
2017-09-22T03:52:32.835Z,0
2017-09-22T03:53:13.274Z,0
2017-09-22T03:53:53.723Z,0
2017-09-22T03:54:34.187Z,0
2017-09-22T03:55:14.641Z,0
2017-09-22T03:55:55.102Z,0
2017-09-22T03:56:35.556Z,0
2017-09-22T03:57:16.014Z,0
2017-09-22T03:57:56.470Z,0
2017-09-22T03:58:36.923Z,0
2017-09-22T03:59:17.381Z,0
2017-09-22T03:59:57.840Z,0
2017-09-22T04:00:38.286Z,0
2017-09-22T04:01:18.739Z,0
2017-09-22T04:01:59.196Z,0
2017-09-22T04:02:39.653Z,0
2017-09-22T04:03:20.105Z,0
2017-09-22T04:04:00.549Z,0
2017-09-22T04:04:41.006Z,0
2017-09-22T04:05:21.463Z,0
2017-09-22T04:06:01.917Z,0
2017-09-22T04:06:42.748Z,0
2017-09-22T04:07:23.195Z,0
2017-09-22T04:08:03.651Z,0
2017-09-22T04:08:44.094Z,0
2017-09-22T04:09:24.545Z,0
2017-09-22T04:10:04.999Z,0
2017-09-22T04:10:45.460Z,0
2017-09-22T04:11:25.919Z,0
2017-09-22T04:12:06.383Z,0
2017-09-22T04:12:46.829Z,0
2017-09-22T04:13:27.270Z,0
2017-09-22T04:14:07.734Z,0
2017-09-22T04:14:48.192Z,0
2017-09-22T04:15:29.138Z,0
2017-09-22T04:16:09.600Z,0
2017-09-22T04:16:50.054Z,0
2017-09-22T04:17:30.517Z,0
2017-09-22T04:18:10.974Z,0
2017-09-22T04:18:51.425Z,0
2017-09-22T04:19:31.880Z,0
2017-09-22T04:20:12.339Z,0
2017-09-22T04:20:52.798Z,0
2017-09-22T04:21:33.389Z,0
2017-09-22T04:22:13.849Z,0
2017-09-22T04:22:54.302Z,0
2017-09-22T04:23:34.752Z,0
2017-09-22T04:24:15.196Z,0
2017-09-22T04:24:55.653Z,0
2017-09-22T04:25:36.107Z,0
2017-09-22T04:26:16.560Z,0
2017-09-22T04:26:57.012Z,0
2017-09-22T04:27:37.463Z,0
2017-09-22T04:28:17.914Z,0
2017-09-22T04:28:58.359Z,0
2017-09-22T04:29:38.809Z,0
2017-09-22T04:30:19.261Z,0
2017-09-22T04:30:59.718Z,0
2017-09-22T04:31:40.194Z,0
2017-09-22T04:32:20.636Z,0
2017-09-22T04:33:01.085Z,0
2017-09-22T04:33:41.579Z,0
2017-09-22T04:34:22.026Z,0
2017-09-22T04:35:02.490Z,0
2017-09-22T04:35:42.948Z,0
2017-09-22T04:36:23.417Z,0
2017-09-22T04:37:03.957Z,0
2017-09-22T04:37:44.420Z,0
2017-09-22T04:38:25.387Z,0
2017-09-22T04:39:05.838Z,0
2017-09-22T04:39:47.119Z,0
2017-09-22T04:40:27.837Z,0
2017-09-22T04:41:08.289Z,0
2017-09-22T04:41:48.744Z,0
2017-09-22T04:42:29.203Z,0
2017-09-22T04:43:09.684Z,0
2017-09-22T04:43:50.133Z,0
2017-09-22T04:44:31.958Z,0
2017-09-22T04:45:12.420Z,0
2017-09-22T04:45:52.879Z,0
2017-09-22T04:46:33.336Z,0
2017-09-22T04:47:13.787Z,0
2017-09-22T04:47:54.245Z,0
2017-09-22T04:48:34.695Z,0
2017-09-22T04:49:15.143Z,0
2017-09-22T04:49:55.616Z,0
2017-09-22T04:50:36.074Z,0
2017-09-22T04:51:16.523Z,0
2017-09-22T04:51:57.003Z,0
2017-09-22T04:52:37.466Z,0
2017-09-22T04:53:17.926Z,0
2017-09-22T04:53:59.312Z,0
2017-09-22T04:54:39.764Z,0
2017-09-22T04:55:20.219Z,0
2017-09-22T04:56:00.692Z,0
2017-09-22T04:56:41.145Z,0
2017-09-22T04:57:21.596Z,0
2017-09-22T04:58:02.039Z,0
2017-09-22T04:58:42.487Z,0
2017-09-22T04:59:22.944Z,4
2017-09-22T05:00:03.391Z,4
2017-09-22T05:00:43.839Z,4
2017-09-22T05:01:24.287Z,4
2017-09-22T05:02:04.744Z,4
2017-09-22T05:02:45.216Z,0
2017-09-22T05:03:25.666Z,0
2017-09-22T05:04:06.124Z,4
2017-09-22T05:04:46.578Z,4
2017-09-22T05:05:27.042Z,4
2017-09-22T05:06:07.497Z,4
2017-09-22T05:06:47.951Z,4
2017-09-22T05:07:28.403Z,8
2017-09-22T05:08:08.857Z,4
2017-09-22T05:08:49.315Z,8
2017-09-22T05:09:29.761Z,8
2017-09-22T05:10:10.211Z,4
2017-09-22T05:10:50.667Z,8
2017-09-22T05:11:31.127Z,8
2017-09-22T05:12:11.582Z,8
2017-09-22T05:12:52.035Z,8
2017-09-22T05:13:32.490Z,8
2017-09-22T05:14:12.943Z,12
2017-09-22T05:14:53.400Z,12
2017-09-22T05:15:33.858Z,12
2017-09-22T05:16:14.312Z,12
2017-09-22T05:16:54.762Z,12
2017-09-22T05:17:35.213Z,16
2017-09-22T05:18:15.679Z,16
2017-09-22T05:18:56.126Z,16
2017-09-22T05:19:36.577Z,20
2017-09-22T05:20:17.031Z,16
2017-09-22T05:20:57.486Z,20
2017-09-22T05:21:37.940Z,20
2017-09-22T05:22:18.396Z,24
2017-09-22T05:22:58.856Z,24
2017-09-22T05:23:39.315Z,24
2017-09-22T05:24:19.770Z,24
2017-09-22T05:25:00.244Z,28
2017-09-22T05:25:40.699Z,28
2017-09-22T05:26:21.152Z,32
2017-09-22T05:27:01.610Z,32
2017-09-22T05:27:42.067Z,32
2017-09-22T05:28:22.521Z,32
2017-09-22T05:29:02.993Z,32
2017-09-22T05:29:43.444Z,36
2017-09-22T05:30:23.899Z,36
2017-09-22T05:31:04.357Z,40
2017-09-22T05:31:44.816Z,40
2017-09-22T05:32:25.264Z,44
2017-09-22T05:33:05.713Z,40
2017-09-22T05:33:46.167Z,40
2017-09-22T05:34:26.628Z,44
2017-09-22T05:35:07.088Z,48
2017-09-22T05:35:47.542Z,44
2017-09-22T05:36:27.996Z,48
2017-09-22T05:37:08.453Z,48
2017-09-22T05:37:48.983Z,48
2017-09-22T05:38:29.578Z,48
2017-09-22T05:39:10.045Z,52
2017-09-22T05:39:50.494Z,52
2017-09-22T05:40:30.969Z,52
2017-09-22T05:41:11.424Z,56
2017-09-22T05:41:51.884Z,56
2017-09-22T05:42:32.338Z,56
2017-09-22T05:43:12.792Z,56
2017-09-22T05:43:53.250Z,60
2017-09-22T05:44:33.703Z,60
2017-09-22T05:45:14.163Z,60
2017-09-22T05:45:54.623Z,60
2017-09-22T05:46:35.084Z,60
2017-09-22T05:47:15.537Z,64
2017-09-22T05:47:55.990Z,64
2017-09-22T05:48:36.446Z,64
2017-09-22T05:49:16.901Z,64
2017-09-22T05:49:57.745Z,64
2017-09-22T05:50:38.195Z,64
2017-09-22T05:51:18.647Z,64
2017-09-22T05:51:59.091Z,64
2017-09-22T05:52:39.540Z,68
2017-09-22T05:53:20.069Z,72
2017-09-22T05:54:00.507Z,72
2017-09-22T05:54:40.997Z,72
2017-09-22T05:55:21.457Z,72
2017-09-22T05:56:01.931Z,76
2017-09-22T05:56:42.363Z,80
2017-09-22T05:57:22.966Z,84
2017-09-22T05:58:03.688Z,88
2017-09-22T05:58:44.139Z,88
2017-09-22T05:59:24.602Z,96
2017-09-22T06:00:05.054Z,96
2017-09-22T06:00:45.529Z,100
2017-09-22T06:01:25.981Z,104
2017-09-22T06:02:06.434Z,104
2017-09-22T06:02:46.878Z,112
2017-09-22T06:03:27.317Z,116
2017-09-22T06:04:07.881Z,120
2017-09-22T06:04:48.344Z,124
2017-09-22T06:05:29.256Z,132
2017-09-22T06:06:09.710Z,136
2017-09-22T06:06:50.326Z,140
2017-09-22T06:07:33.115Z,144
2017-09-22T06:08:13.537Z,152
2017-09-22T06:08:54.022Z,156
2017-09-22T06:09:34.445Z,160
2017-09-22T06:10:14.881Z,160
2017-09-22T06:10:55.414Z,168
2017-09-22T06:11:36.346Z,168
2017-09-22T06:12:17.086Z,172
2017-09-22T06:12:57.547Z,176
2017-09-22T06:13:38.018Z,180
2017-09-22T06:14:18.646Z,184
2017-09-22T06:14:59.110Z,188
2017-09-22T06:15:39.834Z,192
2017-09-22T06:16:20.285Z,196
2017-09-22T06:17:00.737Z,200
2017-09-22T06:17:41.170Z,208
2017-09-22T06:18:21.625Z,212
2017-09-22T06:19:02.340Z,220
2017-09-22T06:19:42.815Z,228
2017-09-22T06:20:23.400Z,236
2017-09-22T06:21:04.217Z,244
2017-09-22T06:21:44.803Z,252
2017-09-22T06:22:25.254Z,256
2017-09-22T06:23:05.711Z,260
2017-09-22T06:23:46.163Z,268
2017-09-22T06:24:26.682Z,272
2017-09-22T06:25:07.281Z,280
2017-09-22T06:25:47.737Z,284
2017-09-22T06:26:28.195Z,288
2017-09-22T06:27:08.649Z,296
2017-09-22T06:27:49.102Z,300
2017-09-22T06:28:29.561Z,308
2017-09-22T06:29:10.047Z,316
2017-09-22T06:29:50.462Z,320
2017-09-22T06:30:30.900Z,328
2017-09-22T06:31:11.526Z,332
2017-09-22T06:31:51.830Z,340
2017-09-22T06:32:32.556Z,344
2017-09-22T06:33:13.014Z,348
2017-09-22T06:33:53.709Z,356
2017-09-22T06:34:33.902Z,364
2017-09-22T06:35:14.362Z,380
2017-09-22T06:35:54.813Z,380
2017-09-22T06:36:35.251Z,392
2017-09-22T06:37:15.712Z,404
2017-09-22T06:37:56.149Z,416
2017-09-22T06:38:37.302Z,428
2017-09-22T06:39:17.064Z,448
2017-09-22T06:41:50.355Z,516
2017-09-22T06:42:30.815Z,536
2017-09-22T06:43:11.389Z,572
2017-09-22T06:43:51.844Z,712
2017-09-22T06:44:32.299Z,720
2017-09-22T06:45:12.750Z,684
2017-09-22T06:45:53.196Z,848
2017-09-22T06:46:33.714Z,1052
2017-09-22T06:47:14.096Z,1360
2017-09-22T06:47:54.556Z,1476
2017-09-22T06:48:35.011Z,1436
2017-09-22T06:49:15.446Z,1340
2017-09-22T06:49:55.888Z,1156
2017-09-22T06:50:36.337Z,916
2017-09-22T06:51:17.621Z,796
2017-09-22T06:51:58.069Z,1076
2017-09-22T06:52:38.516Z,788
2017-09-22T06:53:18.964Z,760
2017-09-22T06:53:59.448Z,764
2017-09-22T06:54:39.914Z,872
2017-09-22T06:55:20.358Z,940
2017-09-22T06:56:00.813Z,804
2017-09-22T06:56:41.268Z,676
2017-09-22T06:57:21.722Z,660
2017-09-22T06:58:02.176Z,648
2017-09-22T07:00:20.126Z,728
2017-09-22T07:01:00.574Z,832
2017-09-22T07:01:41.035Z,588
2017-09-22T07:02:21.488Z,580
2017-09-22T07:03:01.942Z,584
2017-09-22T07:03:42.383Z,588
2017-09-22T07:04:22.829Z,608
2017-09-22T07:05:03.275Z,620
2017-09-22T07:05:43.745Z,644
2017-09-22T07:06:24.204Z,676
2017-09-22T07:07:04.658Z,712
2017-09-22T07:07:45.100Z,752
2017-09-22T07:08:25.564Z,812
2017-09-22T07:09:06.022Z,856
2017-09-22T07:09:46.463Z,948
2017-09-22T07:10:26.900Z,2032
2017-09-22T07:11:07.344Z,2312
2017-09-22T07:11:47.801Z,2340
2017-09-22T07:12:28.253Z,2452
2017-09-22T07:13:08.690Z,2536
2017-09-22T07:13:49.134Z,2636
2017-09-22T07:14:29.531Z,2720
2017-09-22T07:15:09.940Z,2788
2017-09-22T07:15:52.384Z,2800
2017-09-22T07:16:32.581Z,2396
2017-09-22T07:17:12.991Z,1848
2017-09-22T07:17:53.397Z,1412
2017-09-22T07:18:33.794Z,1320
2017-09-22T07:19:14.216Z,1328
2017-09-22T07:19:54.646Z,1408
2017-09-22T07:20:35.066Z,1336
2017-09-22T07:21:15.512Z,1320
2017-09-22T07:21:55.968Z,1272
2017-09-22T07:22:36.432Z,1332
2017-09-22T07:23:16.880Z,1256
2017-09-22T07:23:57.336Z,1288
2017-09-22T07:24:37.795Z,1380
2017-09-22T07:25:18.418Z,1404
2017-09-22T07:25:58.861Z,1424
2017-09-22T07:26:39.322Z,1812
2017-09-22T07:27:19.774Z,1920
2017-09-22T07:28:00.220Z,1692
2017-09-22T07:28:40.673Z,1524
2017-09-22T07:29:21.128Z,2004
2017-09-22T07:30:01.576Z,2036
2017-09-22T07:30:42.017Z,2048
2017-09-22T07:31:22.474Z,2308
2017-09-22T07:32:02.924Z,2760
2017-09-22T07:32:43.383Z,2720
2017-09-22T07:33:23.863Z,2316
2017-09-22T07:34:04.319Z,2436
2017-09-22T07:34:44.774Z,2480
2017-09-22T07:35:25.213Z,2888
2017-09-22T07:36:05.671Z,3216
2017-09-22T07:38:18.571Z,3296
2017-09-22T07:38:59.028Z,3516
2017-09-22T07:39:39.480Z,3608
2017-09-22T07:40:20.297Z,3624
2017-09-22T07:41:01.049Z,2484
2017-09-22T07:41:41.500Z,1896
2017-09-22T07:42:22.036Z,1688
2017-09-22T07:43:02.473Z,1760
2017-09-22T07:43:43.190Z,1768
2017-09-22T07:44:23.535Z,1684
2017-09-22T07:45:03.982Z,1732
2017-09-22T07:45:44.417Z,1672
2017-09-22T07:46:24.843Z,1620
2017-09-22T07:47:05.293Z,1544
2017-09-22T07:47:45.787Z,1504
2017-09-22T07:48:26.205Z,1428
2017-09-22T07:49:06.657Z,1360
2017-09-22T07:49:47.107Z,1348
2017-09-22T07:50:27.565Z,1340
2017-09-22T07:51:08.020Z,1324
2017-09-22T07:51:48.487Z,1292
2017-09-22T07:52:28.933Z,1280
2017-09-22T07:53:09.400Z,1288
2017-09-22T07:53:49.857Z,1300
2017-09-22T07:54:30.319Z,1316
2017-09-22T07:55:10.776Z,1312
2017-09-22T07:55:51.245Z,1316
2017-09-22T07:56:31.694Z,1360
2017-09-22T07:57:12.152Z,1480
2017-09-22T07:57:52.618Z,2172
2017-09-22T07:58:33.076Z,2360
2017-09-22T07:59:13.525Z,3016
2017-09-22T07:59:53.966Z,3588
2017-09-22T08:00:34.424Z,3608
2017-09-22T08:01:14.873Z,4152
2017-09-22T08:01:55.328Z,4012
2017-09-22T08:02:35.786Z,3900
2017-09-22T08:03:16.234Z,3760
2017-09-22T08:03:56.722Z,4024
2017-09-22T08:04:37.151Z,3976
2017-09-22T08:05:17.603Z,4012
2017-09-22T08:05:58.061Z,3992
2017-09-22T08:06:38.515Z,4032
2017-09-22T08:07:18.955Z,4072
2017-09-22T08:07:59.408Z,3980
2017-09-22T08:08:39.866Z,3908
2017-09-22T08:09:20.317Z,3396
2017-09-22T08:10:00.775Z,3328
2017-09-22T08:10:41.239Z,4124
2017-09-22T08:11:21.695Z,3936
2017-09-22T08:12:02.140Z,3108
2017-09-22T08:12:42.606Z,3444
2017-09-22T08:13:23.054Z,4460
2017-09-22T08:14:03.542Z,4508
2017-09-22T08:14:43.952Z,4556
2017-09-22T08:15:24.415Z,4464
2017-09-22T08:16:04.871Z,4588
2017-09-22T08:16:45.319Z,4728
2017-09-22T08:17:25.775Z,4632
2017-09-22T08:18:06.233Z,4772
2017-09-22T08:18:46.697Z,4760
2017-09-22T08:19:27.143Z,4424
2017-09-22T08:20:07.613Z,4600
2017-09-22T08:22:35.705Z,4164
2017-09-22T08:23:16.326Z,3796
2017-09-22T08:23:56.781Z,3484
2017-09-22T08:24:37.239Z,3284
2017-09-22T08:25:17.711Z,2840
2017-09-22T08:25:58.172Z,2656
2017-09-22T08:26:38.624Z,2756
2017-09-22T08:27:19.092Z,3192
2017-09-22T08:27:59.544Z,3152
2017-09-22T08:28:39.997Z,3240
2017-09-22T08:29:20.451Z,3424
2017-09-22T08:30:00.903Z,4300
2017-09-22T08:30:41.363Z,5412
2017-09-22T08:31:21.820Z,5348
2017-09-22T08:32:02.271Z,5288
2017-09-22T08:32:42.730Z,5256
2017-09-22T08:33:23.184Z,5224
2017-09-22T08:34:03.637Z,5192
2017-09-22T08:34:44.093Z,5156
2017-09-22T08:35:24.543Z,5132
2017-09-22T08:36:04.995Z,5092
2017-09-22T08:36:45.449Z,5012
2017-09-22T08:37:25.906Z,4960
2017-09-22T08:38:06.361Z,4920
2017-09-22T08:38:46.818Z,5008
2017-09-22T08:39:27.284Z,4832
2017-09-22T08:40:07.739Z,5080
2017-09-22T08:40:48.192Z,5032
2017-09-22T08:41:28.646Z,5044
2017-09-22T08:42:09.102Z,5052
2017-09-22T08:42:49.557Z,4984
2017-09-22T08:43:30.013Z,4852
2017-09-22T08:44:10.468Z,4528
2017-09-22T08:44:50.910Z,4352
2017-09-22T08:45:31.366Z,4236
2017-09-22T08:46:11.818Z,3700
2017-09-22T08:46:52.297Z,4820
2017-09-22T08:47:32.762Z,5228
2017-09-22T08:48:13.205Z,5204
2017-09-22T08:48:53.663Z,5200
2017-09-22T08:49:34.122Z,5080
2017-09-22T08:50:14.576Z,4964
2017-09-22T08:50:55.036Z,4820
2017-09-22T08:51:35.502Z,4516
2017-09-22T08:52:15.939Z,5020
2017-09-22T08:52:56.383Z,5196
2017-09-22T08:53:36.848Z,5232
2017-09-22T08:54:17.300Z,5224
2017-09-22T08:54:57.758Z,5196
2017-09-22T08:55:38.210Z,5156
2017-09-22T08:56:18.669Z,5156
2017-09-22T08:56:59.114Z,5200
2017-09-22T08:57:39.560Z,5132
2017-09-22T08:58:20.014Z,5032
2017-09-22T08:59:00.475Z,5184
2017-09-22T08:59:40.937Z,5160
2017-09-22T09:00:21.386Z,4360
2017-09-22T09:01:01.848Z,3580
2017-09-22T09:01:42.297Z,3668
2017-09-22T09:02:22.740Z,3548
2017-09-22T09:03:03.194Z,3724
2017-09-22T09:03:43.643Z,4136
2017-09-22T09:04:24.100Z,4228
2017-09-22T09:05:04.570Z,5000
2017-09-22T09:05:45.018Z,3676
2017-09-22T09:06:25.458Z,2404
2017-09-22T09:07:05.905Z,3844
2017-09-22T09:07:46.365Z,3848
2017-09-22T09:08:26.805Z,3008
2017-09-22T09:09:07.255Z,4608
2017-09-22T09:09:47.707Z,4968
2017-09-22T09:10:28.159Z,5164
2017-09-22T09:11:08.618Z,5160
2017-09-22T09:11:49.070Z,5160
2017-09-22T09:12:29.522Z,5176
2017-09-22T09:13:09.976Z,5160
2017-09-22T09:13:50.435Z,5160
2017-09-22T09:14:30.894Z,5088
2017-09-22T09:15:11.342Z,5168
2017-09-22T09:15:51.800Z,5180
2017-09-22T09:16:32.449Z,5180
2017-09-22T09:18:30.135Z,4348
2017-09-22T09:19:10.561Z,4424
2017-09-22T09:19:51.018Z,4580
2017-09-22T09:20:31.477Z,4620
2017-09-22T09:21:11.919Z,4700
2017-09-22T09:21:52.438Z,5044
2017-09-22T09:22:32.852Z,5096
2017-09-22T09:23:13.300Z,5172
2017-09-22T09:23:53.747Z,5180
2017-09-22T09:24:34.195Z,5284
2017-09-22T09:25:14.651Z,5292
2017-09-22T09:25:55.111Z,5172
2017-09-22T09:26:35.559Z,4460
2017-09-22T09:27:16.005Z,4140
2017-09-22T09:27:56.459Z,3920
2017-09-22T09:28:36.911Z,3816
2017-09-22T09:29:17.365Z,3652
2017-09-22T09:29:57.817Z,3688
2017-09-22T09:30:38.268Z,4128
2017-09-22T09:31:18.735Z,4452
2017-09-22T09:31:59.175Z,4628
2017-09-22T09:32:39.630Z,4872
2017-09-22T09:33:20.081Z,5068
2017-09-22T09:34:00.529Z,5348
2017-09-22T09:34:40.985Z,5292
2017-09-22T09:35:21.440Z,5324
2017-09-22T09:36:01.885Z,5272
2017-09-22T09:36:42.338Z,5316
2017-09-22T09:37:22.790Z,5316
2017-09-22T09:38:03.271Z,5292
2017-09-22T09:38:43.728Z,5288
2017-09-22T09:39:24.181Z,5276
2017-09-22T09:40:04.636Z,5304
2017-09-22T09:40:45.088Z,5304
2017-09-22T09:41:25.530Z,5308
2017-09-22T09:42:05.993Z,5324
2017-09-22T09:42:46.454Z,5336
2017-09-22T09:43:26.903Z,5352
2017-09-22T09:44:07.378Z,5396
2017-09-22T09:44:47.830Z,5376
2017-09-22T09:45:28.292Z,4228
2017-09-22T09:46:08.746Z,5252